Du har inga inställningar för hoppväder.nu

Hoppväder.nu

Senast uppdaterat 01:29

UTC-tid

2020-07-06 kl. 23:29


Sol och måne

Solen går upp 2:23 och går ner 23:58 (beräknade cirkatider)
Nästa fullmåne blir om 27 dagar (2020-08-03)

METAR

ESNS (Skellefteå)
(1449 minuter sedan)
ESNS 062320Z AUTO 35003KT 9999 BKN003/// OVC011/// 11/10 Q0991=



ESNU (Umeå)
(1449 minuter sedan)
ESNU 062320Z VRB02KT 9999 OVC049 10/10 Q0990=



ESPA (Luleå)
(1449 minuter sedan)
ESPA 062320Z AUTO 31003KT 9999 -SHRA BKN009/// OVC011/// 11/11 Q0991=









TAF

ESNS (Skellefteå)
ESNS



ESNU (Umeå)
(1439 minuter sedan)
ESNU 062330Z 0700/0709 VRB02KT 9999 FEW020 PROB40 0700/0705 2000 -RADZ BR BKN005=



ESPA (Luleå)
(359 minuter sedan)
ESPA 061730Z 0618/0620 03007KT 9999 -RA SCT007 BKN016 TEMPO 0618/0620 4000 RA BKN007=





Kodnycklar till TAF och METAR






LHP

(Skellefteå är område se44b i Delområde 1)

Prognos är inte uppdaterad






Preliminär prognos